Puerto Barrios Airport
MGPB : now visible

Airfield :











YOU CAN JOIN US ON...

 
LOGIN :

Register | Disclaimer

   EN    FR    IT 

 









Legend :    VFR   Marginal VFR   IFR   Intensive IFR   Very Intensive IFR
Visi :
Ceiling :
>= 8 km
>= 3000ft
5 to 8 km
1000 to 3000 ft
1500m to 5 km
500 to 1000 ft
800 to 1500m
200 to 500 ft
< 800m
< 200 ft
Symbols :   Thunderstorms  Fog  Heavy snow  Heavy precipitations  Wind > 20 kt






- Airport Elevation : 33 ft
- IATA code : PBR


MGPB - Puerto Barrios

CURRENT METAR :
  • 161100Z 00000KT 9999 SCT017 OVC080 23/23 Q1013 A2991

EXPIRED METARs :
  • 161000Z 00000KT 9999 SCT017 BKN080 23/23 Q1013 A2991 BKN080
  • 160900Z 00000KT 9999 FEW017 BKN080 23/23 Q1013 A2991
  • 160800Z 00000KT 9999 FEW017 OVC080 23/22 Q1013 A2991
  • 160700Z 00000KT 9999 FEW017 OVC080 23/23 Q1014 A2994

TAF MGPB
Valid from the 16 at 06:00 until the 17 at 06:00 UTC


160500Z 1606/1706 00000KT 9999 SCT016 TX32/1620Z TN23/1612Z
TEMPO 1606/1609 8000 TSRA FEW025CB SCT080
BECMG 1614/1616 06006KT FEW018
BECMG 1618/1620 SCT022
TEMPO 1621/1700 VCTSRA FEW020CB
BECMG 1701/1703 00000KT FEW016
MHTG FIR / North America



MET'MAP, your aeronautical weather chart ! - Copyright ORBIFLY December 2007 - Disclaimer

ORBIFLY MET'MAP TEAM :

Programming & Development : Alexandra Zaïnal
Original concept : Baudouin d'Aumeries
Technical & hardware support : Manuel Goepfert
Assistance : Marc-Olivier Méhu




SOURCES & CREDITS :

   NOAA       Earth
Advisory